Domov               UVHVVR             MKGP            O straneh              
ZDRAVSTVENO VARSTVO RASTLIN
  MREŽA AGROMET. POSTAJ
 ► PROGNOSTIČNA OBVESTILA
AGROMETEOROLOŠKI PODATKI -
ARSO
OBVLADOVANJE TVEGANJ ZARADI
NEUGODNIH VREMENSKIH RAZMER
  ► NARAVNE NESREČE
  ► SUŠA/MOČA
  ► NAMAKANJE
  ► ŽLED (gozdarstvo)
KARTOGRAFSKI PRIKAZI
SPLETNE POVEZAVE
PROJEKTI IN PUBLIKACIJE

AGROMETEOROLOŠKA MREŽA: VREMENSKE POSTAJE IN FENOLOŠKA OPAZOVANJA

Pregled podatkov za lokacijo Vidonci, meteorološka postaja 42838

Pregled senzorjev na lokaciji

ID Ime Zadnja
vrednost
Datum
zadnje
spremembe
Tip
senzorja
2110 Omočenost lista (U) 6 U 18.7.2018 00:00 A730WET
2112 Relativna vlaga 2 m (% RH) 74,62 % RH 18.7.2018 00:00 50YA
2111 Temperatura 2 m (°C) 16,93 °C 18.7.2018 00:00 50YA

Pregled podatkov zadnjih 24 ur

Zap.
št.
Datum in čas Vidonci
Omočenost
lista
Relativna
vlaga
2
m
Temperatura
2
m
1 18.7.2018 01:00
2 18.7.2018 00:30
3 18.7.2018 00:00
4 17.7.2018 23:30
5 17.7.2018 23:00 6 74,6 16,9
6 17.7.2018 22:30 9 75,8 17,3
7 17.7.2018 22:00 3 74,9 17,8
8 17.7.2018 21:30 0 72,7 18,3
9 17.7.2018 21:00 0 69,7 18,8
10 17.7.2018 20:30 0 63,4 19,8
11 17.7.2018 20:00 0 55,4 21,2
12 17.7.2018 19:30 0 49,6 22,5
13 17.7.2018 19:00 0 42,1 23,8
14 17.7.2018 18:30 0 38,7 25,3
15 17.7.2018 18:00 0 39,5 25,2
16 17.7.2018 17:30 0 38,1 26,2
17 17.7.2018 17:00 0 38,4 26,3
18 17.7.2018 16:30 0 37,8 26,1
19 17.7.2018 16:00 0 36,9 26,2
20 17.7.2018 15:30 0 38,9 26,2
21 17.7.2018 15:00 0 40,6 26,6
22 17.7.2018 14:30 0 39,1 26,8
23 17.7.2018 14:00 0 37,3 27
24 17.7.2018 13:30 0 41,2 27,3
25 17.7.2018 13:00 0 43 26,6
26 17.7.2018 12:30 0 42,4 26,6
27 17.7.2018 12:00 0 43,7 26,4
28 17.7.2018 11:30 0 43,7 26,4
29 17.7.2018 11:00 0 45,5 26,4
30 17.7.2018 10:30 0 47,8 26,1
31 17.7.2018 10:00 0 47,5 26
32 17.7.2018 09:30 0 51,2 25,5
33 17.7.2018 09:00 0 53 24,6
34 17.7.2018 08:30 0 56,7 23,9
35 17.7.2018 08:00 0 58,2 23,2
36 17.7.2018 07:30 0 59,9 22,3
37 17.7.2018 07:00 3 61,3 21,9
38 17.7.2018 06:30 10 65,2 20,8
39 17.7.2018 06:00 10 73,3 19,2
40 17.7.2018 05:30 10 78 17,5
41 17.7.2018 05:00 10 82,4 16,1
42 17.7.2018 04:30 10 85,6 15,8
43 17.7.2018 04:00 10 88 15,7
44 17.7.2018 03:30 10 89,3 15,8
45 17.7.2018 03:00 10 89,4 15,6
46 17.7.2018 02:30 10 88,2 16
47 17.7.2018 02:00 10 87,1 16,4
48 17.7.2018 01:30 10 85,8 16,7
© 2011 Ministrstvo za kmetijstvo, gozdarstvo in prehrano. Vse pravice pridržane.